createdAt,value
2023-03-03T00:02:24.386Z,244.23
2023-03-03T00:05:00.417Z,246.07
2023-03-03T00:07:36.519Z,240.73
2023-03-03T00:10:15.544Z,239.50
2023-03-03T00:12:54.810Z,248.57
2023-03-03T00:15:32.775Z,233.33
2023-03-03T00:18:17.317Z,231.33
2023-03-03T00:20:58.901Z,235.10
2023-03-03T00:23:42.682Z,226.97
2023-03-03T00:26:27.590Z,227.67
2023-03-03T00:29:03.635Z,230.50
2023-03-03T00:31:41.632Z,230.73
2023-03-03T00:34:29.980Z,227.30
2023-03-03T00:37:06.544Z,223.23
2023-03-03T00:39:44.104Z,222.70
2023-03-03T00:42:25.901Z,222.17
2023-03-03T00:45:04.983Z,219.60
2023-03-03T00:47:43.966Z,217.57
2023-03-03T00:50:39.672Z,224.43
2023-03-03T00:53:21.403Z,218.90
2023-03-03T00:56:03.952Z,227.03
2023-03-03T00:58:43.161Z,217.00
2023-03-03T01:01:23.622Z,203.90
2023-03-03T01:04:03.386Z,225.23
2023-03-03T01:06:40.267Z,208.93
2023-03-03T01:09:16.740Z,210.70
2023-03-03T01:11:56.726Z,208.63
2023-03-03T01:14:38.680Z,211.33
2023-03-03T01:17:14.854Z,203.40
2023-03-03T01:19:54.736Z,206.47
2023-03-03T01:22:31.071Z,202.03
2023-03-03T01:25:08.898Z,205.73
2023-03-03T01:27:46.565Z,202.07
2023-03-03T01:30:28.200Z,207.10
2023-03-03T01:33:04.499Z,213.77
2023-03-03T01:35:48.647Z,219.10
2023-03-03T01:38:25.228Z,201.03
2023-03-03T01:41:07.047Z,199.07
2023-03-03T01:43:51.174Z,202.80
2023-03-03T01:46:46.218Z,206.03
2023-03-03T01:49:24.731Z,216.17
2023-03-03T01:52:03.486Z,204.83
2023-03-03T01:54:46.696Z,201.00
2023-03-03T01:57:26.824Z,211.73
2023-03-03T02:00:05.137Z,209.90
2023-03-03T02:02:52.987Z,202.70
2023-03-03T02:05:29.826Z,210.60
2023-03-03T02:08:07.070Z,207.37
2023-03-03T02:10:47.052Z,206.67
2023-03-03T02:13:23.184Z,209.37
2023-03-03T02:16:00.954Z,211.57
2023-03-03T02:18:39.600Z,223.57
2023-03-03T02:21:19.925Z,218.70
2023-03-03T02:24:04.068Z,212.77
2023-03-03T02:26:49.110Z,225.07
2023-03-03T02:29:26.993Z,220.83
2023-03-03T02:32:03.543Z,225.80
2023-03-03T02:34:52.794Z,211.87
2023-03-03T02:37:29.702Z,223.00
2023-03-03T02:40:10.788Z,214.50
2023-03-03T02:42:50.593Z,229.03
2023-03-03T02:45:28.227Z,216.20
2023-03-03T02:48:06.681Z,213.17
2023-03-03T02:50:43.023Z,221.37
2023-03-03T02:53:20.646Z,224.67
2023-03-03T02:55:56.862Z,213.87
2023-03-03T02:58:35.737Z,225.77
2023-03-03T03:01:13.219Z,209.03
2023-03-03T03:03:54.731Z,223.53
2023-03-03T03:06:32.586Z,212.30
2023-03-03T03:09:12.213Z,221.90
2023-03-03T03:11:48.674Z,221.00
2023-03-03T03:14:29.981Z,213.23
2023-03-03T03:17:06.557Z,219.63
2023-03-03T03:19:47.137Z,209.97
2023-03-03T03:22:23.235Z,208.53
2023-03-03T03:25:00.323Z,223.20
2023-03-03T03:27:41.488Z,219.83
2023-03-03T03:30:23.868Z,213.07
2023-03-03T03:33:00.128Z,218.70
2023-03-03T03:35:36.869Z,214.57
2023-03-03T03:38:14.062Z,205.27
2023-03-03T03:40:51.616Z,207.97
2023-03-03T03:43:28.395Z,214.27
2023-03-03T03:46:07.695Z,211.77
2023-03-03T03:48:45.646Z,200.03
2023-03-03T03:51:24.154Z,211.83
2023-03-03T03:54:00.158Z,215.33
2023-03-03T03:56:43.698Z,210.93
2023-03-03T03:59:22.002Z,219.00
2023-03-03T04:02:05.636Z,199.37
2023-03-03T04:04:43.227Z,206.60
2023-03-03T04:07:25.669Z,210.47
2023-03-03T04:10:04.318Z,202.07
2023-03-03T04:12:44.572Z,198.30
2023-03-03T04:15:27.478Z,199.77
2023-03-03T04:18:12.033Z,184.83
2023-03-03T04:20:49.894Z,199.93
2023-03-03T04:23:32.084Z,201.53
2023-03-03T04:26:10.498Z,199.90
2023-03-03T04:28:53.131Z,186.43
2023-03-03T04:31:42.852Z,191.77
2023-03-03T04:34:33.920Z,177.70
2023-03-03T04:37:17.322Z,173.87
2023-03-03T04:39:56.890Z,184.90
2023-03-03T04:42:40.873Z,171.10
2023-03-03T04:45:20.290Z,184.90
2023-03-03T04:48:02.461Z,181.87
2023-03-03T04:50:49.557Z,177.17
2023-03-03T04:53:29.068Z,178.33
2023-03-03T04:56:08.986Z,175.80
2023-03-03T04:58:48.185Z,166.43
2023-03-03T05:01:25.049Z,162.13
2023-03-03T05:04:04.807Z,151.47
2023-03-03T05:06:50.905Z,168.37
2023-03-03T05:09:27.000Z,160.80
2023-03-03T05:12:02.968Z,142.17
2023-03-03T05:14:45.062Z,142.23
2023-03-03T05:17:23.354Z,127.93
2023-03-03T05:19:59.610Z,131.20
2023-03-03T05:22:40.417Z,124.50
2023-03-03T05:25:19.870Z,116.73
2023-03-03T05:27:59.405Z,133.73
2023-03-03T05:30:35.657Z,124.97
2023-03-03T05:33:12.047Z,137.87
2023-03-03T05:35:51.567Z,136.77
2023-03-03T05:38:30.759Z,133.43
2023-03-03T05:41:07.144Z,124.10
2023-03-03T05:43:46.753Z,135.17
2023-03-03T05:46:23.634Z,137.13
2023-03-03T05:49:00.740Z,142.20
2023-03-03T05:51:40.633Z,134.00
2023-03-03T05:54:19.361Z,142.00
2023-03-03T05:56:55.823Z,129.50
2023-03-03T05:59:35.068Z,136.30
2023-03-03T06:02:11.558Z,142.57
2023-03-03T06:05:10.558Z,139.37
2023-03-03T06:07:47.058Z,132.57
2023-03-03T06:10:26.318Z,118.17
2023-03-03T06:13:06.896Z,127.83
2023-03-03T06:15:46.908Z,128.47
2023-03-03T06:18:25.903Z,138.67
2023-03-03T06:21:02.341Z,130.77
2023-03-03T06:23:40.424Z,133.60
2023-03-03T06:26:20.535Z,134.77
2023-03-03T06:28:57.469Z,132.03
2023-03-03T06:31:35.323Z,129.03
2023-03-03T06:34:11.693Z,132.03
2023-03-03T06:36:49.415Z,123.20
2023-03-03T06:39:25.804Z,133.67
2023-03-03T06:42:09.724Z,122.03
2023-03-03T06:44:48.021Z,122.10
2023-03-03T06:47:24.593Z,128.17
2023-03-03T06:50:06.821Z,123.93
2023-03-03T06:52:44.733Z,113.47
2023-03-03T06:55:31.287Z,115.93
2023-03-03T06:58:17.059Z,129.40
2023-03-03T07:00:58.960Z,113.10
2023-03-03T07:03:38.050Z,107.73
2023-03-03T07:06:26.107Z,114.27
2023-03-03T07:09:04.302Z,106.60
2023-03-03T07:11:44.001Z,111.80
2023-03-03T07:14:26.033Z,111.80
2023-03-03T07:17:06.717Z,106.07
2023-03-03T07:19:43.619Z,97.80
2023-03-03T07:22:24.164Z,103.70
2023-03-03T07:25:04.832Z,111.07
2023-03-03T07:27:42.536Z,108.13
2023-03-03T07:30:39.335Z,102.30
2023-03-03T07:33:29.356Z,107.33
2023-03-03T07:36:08.609Z,104.50
2023-03-03T07:38:51.935Z,101.17
2023-03-03T07:41:28.707Z,103.57
2023-03-03T07:44:10.271Z,92.57
2023-03-03T07:46:54.451Z,101.17
2023-03-03T07:49:38.172Z,98.17
2023-03-03T07:52:31.018Z,101.27
2023-03-03T07:55:25.079Z,100.80
2023-03-03T07:58:07.740Z,110.00
2023-03-03T08:01:17.324Z,111.47
2023-03-03T08:04:02.978Z,111.93
2023-03-03T08:07:00.724Z,107.90
2023-03-03T08:09:48.330Z,102.40
2023-03-03T08:12:43.582Z,121.70
2023-03-03T08:15:30.420Z,108.77
2023-03-03T08:18:23.310Z,102.27
2023-03-03T08:21:13.986Z,112.53
2023-03-03T08:23:56.367Z,111.50
2023-03-03T08:26:38.132Z,114.53
2023-03-03T08:29:21.171Z,110.60
2023-03-03T08:31:59.571Z,105.47
2023-03-03T08:34:41.240Z,118.23
2023-03-03T08:37:25.213Z,102.17
2023-03-03T08:40:07.808Z,113.93
2023-03-03T08:42:49.074Z,116.83
2023-03-03T08:45:25.523Z,110.20
2023-03-03T08:48:11.197Z,102.07
2023-03-03T08:50:50.252Z,116.73
2023-03-03T08:53:42.314Z,109.63
2023-03-03T08:56:19.695Z,109.43
2023-03-03T08:59:02.546Z,96.27
2023-03-03T09:01:46.567Z,103.93
2023-03-03T09:04:25.482Z,108.70
2023-03-03T09:07:02.098Z,103.13
2023-03-03T09:09:41.696Z,100.17
2023-03-03T09:12:23.271Z,108.50
2023-03-03T09:15:01.223Z,104.10
2023-03-03T09:17:40.283Z,91.80
2023-03-03T09:20:34.183Z,90.47
2023-03-03T09:23:44.274Z,96.83
2023-03-03T09:26:45.688Z,94.77
2023-03-03T09:29:32.322Z,97.73
2023-03-03T09:32:13.966Z,101.63
2023-03-03T09:34:54.502Z,100.67
2023-03-03T09:37:34.691Z,103.93
2023-03-03T09:40:33.980Z,109.80
2023-03-03T09:43:25.535Z,99.53
2023-03-03T09:46:09.433Z,92.67
2023-03-03T09:48:58.251Z,103.27
2023-03-03T09:52:02.969Z,102.53
2023-03-03T09:54:52.429Z,108.93
2023-03-03T09:57:35.216Z,101.10
2023-03-03T10:00:51.228Z,100.40
2023-03-03T10:03:59.577Z,106.80
2023-03-03T10:06:40.017Z,96.20
2023-03-03T10:10:02.992Z,111.33
2023-03-03T10:12:51.014Z,105.53
2023-03-03T10:15:42.844Z,103.07
2023-03-03T10:18:38.865Z,103.87
2023-03-03T10:21:22.705Z,107.50
2023-03-03T10:24:06.857Z,96.10
2023-03-03T10:27:16.032Z,109.17
2023-03-03T10:30:06.733Z,109.73
2023-03-03T10:32:59.619Z,122.33
2023-03-03T10:36:07.863Z,108.07
2023-03-03T10:39:03.391Z,121.57
2023-03-03T10:42:03.338Z,99.73
2023-03-03T10:45:05.724Z,106.90
2023-03-03T10:48:12.163Z,110.13
2023-03-03T10:51:02.466Z,109.30
2023-03-03T10:53:49.925Z,105.57
2023-03-03T10:56:52.143Z,110.17
2023-03-03T10:59:53.427Z,106.53
2023-03-03T11:02:39.145Z,97.63
2023-03-03T11:05:34.754Z,104.33
2023-03-03T11:08:20.813Z,105.27
2023-03-03T11:11:11.916Z,106.00
2023-03-03T11:13:58.621Z,120.13
2023-03-03T11:16:58.911Z,104.27
2023-03-03T11:19:51.915Z,109.80
2023-03-03T11:22:46.865Z,113.23
2023-03-03T11:25:44.261Z,107.50
2023-03-03T11:28:38.746Z,110.87
2023-03-03T11:31:28.743Z,103.80
2023-03-03T11:34:22.686Z,107.23
2023-03-03T11:37:07.891Z,114.73
2023-03-03T11:39:48.593Z,110.20
2023-03-03T11:42:36.993Z,101.50
2023-03-03T11:45:23.658Z,104.97
2023-03-03T11:48:10.744Z,116.90
2023-03-03T11:50:58.222Z,110.53
2023-03-03T11:54:15.847Z,110.47
2023-03-03T11:57:00.063Z,110.63
2023-03-03T12:00:03.472Z,109.77
2023-03-03T12:03:13.518Z,108.20
2023-03-03T12:06:07.674Z,114.37
2023-03-03T12:09:14.946Z,114.53
2023-03-03T12:12:03.481Z,123.83
2023-03-03T12:15:01.786Z,123.33
2023-03-03T12:18:34.926Z,121.97
2023-03-03T12:21:25.744Z,131.07
2023-03-03T12:24:34.347Z,117.27
2023-03-03T12:27:25.775Z,117.33
2023-03-03T12:30:14.984Z,126.17
2023-03-03T12:33:26.398Z,126.57
2023-03-03T12:36:22.668Z,132.60
2023-03-03T12:39:08.422Z,122.20
2023-03-03T12:42:01.087Z,132.33
2023-03-03T12:44:50.637Z,121.67
2023-03-03T12:47:37.805Z,122.27
2023-03-03T12:50:36.949Z,121.50
2023-03-03T12:53:29.419Z,132.67
2023-03-03T12:56:11.465Z,118.87
2023-03-03T12:58:58.476Z,113.63
2023-03-03T13:01:45.682Z,116.13
2023-03-03T13:04:43.741Z,121.17
2023-03-03T13:07:42.728Z,122.70
2023-03-03T13:10:38.233Z,110.13
2023-03-03T13:13:25.241Z,114.73
2023-03-03T13:16:10.128Z,125.47
2023-03-03T13:19:03.384Z,123.60
2023-03-03T13:21:49.380Z,122.73
2023-03-03T13:24:41.676Z,118.47
2023-03-03T13:27:25.856Z,131.17
2023-03-03T13:30:16.937Z,108.47
2023-03-03T13:33:11.633Z,110.13
2023-03-03T13:35:56.748Z,113.57
2023-03-03T13:38:36.596Z,112.57
2023-03-03T13:41:32.562Z,115.77
2023-03-03T13:44:17.474Z,110.97
2023-03-03T13:47:11.751Z,121.03
2023-03-03T13:50:12.219Z,121.63
2023-03-03T13:53:10.478Z,116.93
2023-03-03T13:56:00.144Z,112.10
2023-03-03T13:58:58.488Z,116.13
2023-03-03T14:01:44.206Z,134.13
2023-03-03T14:04:41.868Z,121.03
2023-03-03T14:07:24.053Z,123.60
2023-03-03T14:10:08.696Z,125.70
2023-03-03T14:12:57.820Z,125.30
2023-03-03T14:15:50.683Z,123.20
2023-03-03T14:18:36.349Z,123.27
2023-03-03T14:21:26.462Z,116.40
2023-03-03T14:24:12.739Z,121.03
2023-03-03T14:27:01.515Z,121.63
2023-03-03T14:29:53.011Z,125.80
2023-03-03T14:32:45.077Z,120.10
2023-03-03T14:35:28.949Z,105.77
2023-03-03T14:38:13.927Z,117.10
2023-03-03T14:40:52.676Z,119.37
2023-03-03T14:43:36.813Z,114.00
2023-03-03T14:46:58.551Z,114.40
2023-03-03T14:49:42.564Z,111.07
2023-03-03T14:52:39.792Z,114.90
2023-03-03T14:55:42.127Z,112.80
2023-03-03T14:58:40.770Z,96.47
2023-03-03T15:01:26.028Z,108.37
2023-03-03T15:04:09.964Z,121.70
2023-03-03T15:06:59.965Z,98.57
2023-03-03T15:09:44.002Z,105.27
2023-03-03T15:12:43.003Z,102.93
2023-03-03T15:15:34.024Z,107.87
2023-03-03T15:18:20.479Z,101.67
2023-03-03T15:21:10.047Z,111.70
2023-03-03T15:24:02.287Z,105.67
2023-03-03T15:26:55.810Z,110.43
2023-03-03T15:29:47.059Z,105.87
2023-03-03T15:32:32.192Z,113.97
2023-03-03T15:35:30.194Z,105.80
2023-03-03T15:38:28.845Z,99.70
2023-03-03T15:41:26.456Z,107.30
2023-03-03T15:44:29.143Z,104.37
2023-03-03T15:47:28.928Z,102.33
2023-03-03T15:50:33.187Z,106.07
2023-03-03T15:53:29.248Z,106.43
2023-03-03T15:56:26.348Z,113.13
2023-03-03T15:59:38.589Z,110.63
2023-03-03T16:02:29.590Z,110.10
2023-03-03T16:05:18.598Z,105.63
2023-03-03T16:08:07.600Z,109.67
2023-03-03T16:11:00.117Z,100.63
2023-03-03T16:13:55.245Z,104.30
2023-03-03T16:16:45.895Z,97.43
2023-03-03T16:19:36.269Z,105.37
2023-03-03T16:22:33.161Z,98.97
2023-03-03T16:25:27.718Z,111.73
2023-03-03T16:28:16.107Z,109.80
2023-03-03T16:31:03.917Z,111.40
2023-03-03T16:33:49.576Z,115.50
2023-03-03T16:36:37.737Z,108.93
2023-03-03T16:39:23.932Z,115.83
2023-03-03T16:42:06.517Z,109.27
2023-03-03T16:44:57.477Z,111.17
2023-03-03T16:47:58.561Z,120.83
2023-03-03T16:50:43.661Z,98.43
2023-03-03T16:53:32.552Z,115.70
2023-03-03T16:56:16.534Z,93.60
2023-03-03T16:59:16.040Z,104.00
2023-03-03T17:02:03.602Z,107.40
2023-03-03T17:04:53.706Z,100.23
2023-03-03T17:07:49.186Z,104.87
2023-03-03T17:10:32.925Z,101.77
2023-03-03T17:13:20.975Z,101.13
2023-03-03T17:16:10.120Z,98.27
2023-03-03T17:19:06.753Z,101.93
2023-03-03T17:22:02.930Z,114.63
2023-03-03T17:24:53.779Z,104.90
2023-03-03T17:27:40.173Z,113.07
2023-03-03T17:30:26.070Z,106.07
2023-03-03T17:33:23.055Z,110.93
2023-03-03T17:36:21.860Z,112.47
2023-03-03T17:39:12.129Z,101.20
2023-03-03T17:41:57.015Z,106.67
2023-03-03T17:44:43.108Z,116.60
2023-03-03T17:47:26.021Z,118.87
2023-03-03T17:50:19.010Z,114.77
2023-03-03T17:53:11.390Z,110.93
2023-03-03T17:56:13.472Z,112.73
2023-03-03T17:59:22.001Z,106.63
2023-03-03T18:02:15.988Z,105.80
2023-03-03T18:05:12.446Z,103.07
2023-03-03T18:07:58.420Z,103.37
2023-03-03T18:11:10.094Z,104.47
2023-03-03T18:14:11.716Z,109.73
2023-03-03T18:17:07.633Z,111.17
2023-03-03T18:20:06.217Z,108.07
2023-03-03T18:22:50.430Z,100.00
2023-03-03T18:25:28.994Z,102.90
2023-03-03T18:28:28.253Z,95.27
2023-03-03T18:31:31.885Z,99.67
2023-03-03T18:34:13.451Z,103.57
2023-03-03T18:37:00.301Z,99.63
2023-03-03T18:39:47.702Z,102.23
2023-03-03T18:42:42.598Z,97.83
2023-03-03T18:45:57.142Z,94.33
2023-03-03T18:49:06.433Z,99.37
2023-03-03T18:52:22.901Z,97.40
2023-03-03T18:55:29.666Z,82.90
2023-03-03T18:58:35.774Z,89.13
2023-03-03T19:01:43.386Z,93.03
2023-03-03T19:04:28.856Z,87.93
2023-03-03T19:07:28.484Z,93.50
2023-03-03T19:10:05.696Z,83.97
2023-03-03T19:12:53.256Z,87.40
2023-03-03T19:15:50.989Z,86.87
2023-03-03T19:18:28.540Z,97.33
2023-03-03T19:21:08.708Z,98.63
2023-03-03T19:24:01.465Z,94.57
2023-03-03T19:27:16.410Z,90.27
2023-03-03T19:30:30.851Z,95.17
2023-03-03T19:33:37.535Z,95.00
2023-03-03T19:36:38.976Z,85.00
2023-03-03T19:39:46.118Z,102.60
2023-03-03T19:42:33.653Z,92.93
2023-03-03T19:45:32.252Z,94.20
2023-03-03T19:48:14.001Z,90.57
2023-03-03T19:50:56.134Z,97.10
2023-03-03T19:53:39.474Z,92.57
2023-03-03T19:56:40.676Z,91.17
2023-03-03T19:59:27.539Z,91.20
2023-03-03T20:02:24.433Z,95.80
2023-03-03T20:05:11.833Z,92.60
2023-03-03T20:07:55.022Z,92.93
2023-03-03T20:10:48.993Z,94.03
2023-03-03T20:13:38.650Z,94.50
2023-03-03T20:16:28.037Z,86.80
2023-03-03T20:19:26.843Z,102.10
2023-03-03T20:22:12.976Z,91.60
2023-03-03T20:25:03.726Z,93.73
2023-03-03T20:27:48.762Z,93.40
2023-03-03T20:30:32.284Z,94.00
2023-03-03T20:33:20.942Z,90.87
2023-03-03T20:36:06.523Z,99.43
2023-03-03T20:38:49.674Z,88.37
2023-03-03T20:41:34.441Z,96.10
2023-03-03T20:44:25.287Z,94.20
2023-03-03T20:47:06.348Z,93.57
2023-03-03T20:50:16.642Z,95.17
2023-03-03T20:53:07.544Z,89.77
2023-03-03T20:55:52.504Z,89.80
2023-03-03T20:58:36.564Z,83.47
2023-03-03T21:01:16.830Z,90.23
2023-03-03T21:03:51.220Z,92.50
2023-03-03T21:06:27.905Z,93.83
2023-03-03T21:09:04.175Z,88.13
2023-03-03T21:11:48.322Z,83.13
2023-03-03T21:14:26.221Z,87.03
2023-03-03T21:17:04.228Z,85.23
2023-03-03T21:19:40.429Z,91.03
2023-03-03T21:22:15.672Z,90.63
2023-03-03T21:24:54.710Z,91.27
2023-03-03T21:27:34.081Z,89.80
2023-03-03T21:30:10.175Z,88.60
2023-03-03T21:32:49.630Z,91.13
2023-03-03T21:35:25.114Z,90.47
2023-03-03T21:38:01.924Z,82.80
2023-03-03T21:40:37.512Z,86.67
2023-03-03T21:43:11.931Z,93.30
2023-03-03T21:45:48.089Z,89.80
2023-03-03T21:48:24.934Z,97.10
2023-03-03T21:51:00.560Z,84.97
2023-03-03T21:53:34.441Z,97.67
2023-03-03T21:56:08.906Z,88.70
2023-03-03T21:58:43.108Z,85.97
2023-03-03T22:01:17.989Z,90.50
2023-03-03T22:03:54.164Z,88.70
2023-03-03T22:06:29.414Z,91.63
2023-03-03T22:09:04.948Z,86.90
2023-03-03T22:11:39.824Z,99.17
2023-03-03T22:14:15.077Z,93.13
2023-03-03T22:16:50.377Z,103.97
2023-03-03T22:19:28.587Z,96.07
2023-03-03T22:22:04.004Z,99.90
2023-03-03T22:24:38.560Z,97.97
2023-03-03T22:27:13.450Z,94.30
2023-03-03T22:29:48.400Z,92.80
2023-03-03T22:32:24.173Z,93.03
2023-03-03T22:35:02.419Z,91.10
2023-03-03T22:37:38.245Z,95.97
2023-03-03T22:40:15.199Z,92.97
2023-03-03T22:42:51.125Z,97.00
2023-03-03T22:45:26.801Z,96.57
2023-03-03T22:48:02.040Z,101.83
2023-03-03T22:50:42.267Z,97.87
2023-03-03T22:53:18.535Z,93.83
2023-03-03T22:55:54.947Z,92.43
2023-03-03T22:58:30.689Z,91.33
2023-03-03T23:01:08.508Z,97.50
2023-03-03T23:03:44.576Z,100.13
2023-03-03T23:06:22.575Z,93.67
2023-03-03T23:08:58.289Z,91.83
2023-03-03T23:11:34.010Z,103.10
2023-03-03T23:14:10.048Z,89.47
2023-03-03T23:16:47.169Z,98.03
2023-03-03T23:19:22.622Z,101.03
2023-03-03T23:22:01.037Z,102.73
2023-03-03T23:24:37.399Z,104.83
2023-03-03T23:27:13.905Z,93.60
2023-03-03T23:29:49.222Z,97.53
2023-03-03T23:32:26.108Z,99.03
2023-03-03T23:35:02.011Z,98.83
2023-03-03T23:37:40.039Z,104.40
2023-03-03T23:40:17.410Z,103.90
2023-03-03T23:42:53.572Z,102.57
2023-03-03T23:45:29.656Z,108.73
2023-03-03T23:48:05.542Z,107.23
2023-03-03T23:50:41.792Z,107.67
2023-03-03T23:53:20.914Z,126.17
2023-03-03T23:55:56.865Z,115.90
2023-03-03T23:58:32.444Z,115.33
